Time;durP1;ratioP1;P1;durP2;ratioP2;P2;SDS_P1;SDS_P2;PMS_P1;PMS_P2;Temp;Humidity;BMP_temperature;BMP_pressure;BME280_temperature;BME280_humidity;BME280_pressure;Samples;Min_cycle;Max_cycle;Signal;HPM_P1;HPM_P2
2023/08/15 00:01:31;;;;;;;105.70;97.30;;;;;;;;;;5024097;28;20442;-62
2023/08/15 00:04:01;;;;;;;113.18;104.68;;;;;;;;;;5025558;28;20465;-62
2023/08/15 00:06:28;;;;;;;377.27;345.88;;;;;;;;;;5028115;28;20433;-62
2023/08/15 00:08:55;;;;;;;156.48;143.90;;;;;;;;;;5028280;28;20920;-62
2023/08/15 00:11:23;;;;;;;464.30;425.65;;;;;;;;;;5026960;28;20439;-62
2023/08/15 00:13:55;;;;;;;610.63;555.20;;;;;;;;;;5025700;28;20435;-62
2023/08/15 00:16:23;;;;;;;63.80;60.08;;;;;;;;;;5027201;28;20448;-61
2023/08/15 00:18:53;;;;;;;385.50;355.67;;;;;;;;;;5027531;28;20432;-62
2023/08/15 00:21:20;;;;;;;644.80;590.37;;;;;;;;;;5030377;28;20522;-61
2023/08/15 00:23:51;;;;;;;320.73;296.63;;;;;;;;;;5029249;28;20433;-62
2023/08/15 00:26:18;;;;;;;346.15;318.80;;;;;;;;;;5027884;28;20433;-62
2023/08/15 00:28:45;;;;;;;247.32;229.05;;;;;;;;;;5027219;28;20489;-62
2023/08/15 00:31:12;;;;;;;80.17;73.47;;;;;;;;;;5026318;28;21435;-62
2023/08/15 00:33:41;;;;;;;2.78;2.40;;;;;;;;;;5028743;28;20510;-62
2023/08/15 00:36:09;;;;;;;3.50;2.45;;;;;;;;;;5025177;28;20971;-62
2023/08/15 00:38:36;;;;;;;6.53;2.60;;;;;;;;;;5028053;28;20436;-62
2023/08/15 00:41:04;;;;;;;4.07;2.60;;;;;;;;;;5019218;28;20462;-62
2023/08/15 00:43:33;;;;;;;3.15;2.80;;;;;;;;;;5026586;28;20466;-62
2023/08/15 00:46:02;;;;;;;3.08;2.88;;;;;;;;;;5029534;28;20436;-62
2023/08/15 00:48:31;;;;;;;11.80;10.70;;;;;;;;;;5025601;28;20519;-62
2023/08/15 00:51:01;;;;;;;4.32;3.92;;;;;;;;;;5025723;28;20458;-62
2023/08/15 00:53:29;;;;;;;6.32;4.97;;;;;;;;;;5032684;28;20441;-62
2023/08/15 00:55:56;;;;;;;211.27;194.20;;;;;;;;;;5026005;28;20429;-62
2023/08/15 00:58:23;;;;;;;7.10;6.38;;;;;;;;;;5029747;28;20452;-62
2023/08/15 01:00:54;;;;;;;79.72;74.10;;;;;;;;;;5027640;28;20837;-62
2023/08/15 01:03:21;;;;;;;238.13;219.68;;;;;;;;;;5027798;28;20539;-63
2023/08/15 01:05:49;;;;;;;19.42;17.48;;;;;;;;;;5027639;28;20460;-62
2023/08/15 01:08:17;;;;;;;148.60;137.38;;;;;;;;;;5030372;28;20507;-62
2023/08/15 01:10:45;;;;;;;27.02;24.95;;;;;;;;;;5028432;28;20562;-62
2023/08/15 01:13:22;;;;;;;6.30;3.10;;;;;;;;;;5029240;28;20441;-62
2023/08/15 01:15:51;;;;;;;493.35;450.10;;;;;;;;;;5030137;28;21119;-62
2023/08/15 01:18:24;;;;;;;677.50;615.87;;;;;;;;;;5029905;28;20430;-62
2023/08/15 01:20:53;;;;;;;561.70;513.53;;;;;;;;;;5032487;28;22067;-61
2023/08/15 01:23:24;;;;;;;563.22;511.52;;;;;;;;;;5024739;28;20851;-62
2023/08/15 01:25:55;;;;;;;662.63;594.50;;;;;;;;;;5031718;28;20494;-62
2023/08/15 01:28:22;;;;;;;384.63;351.73;;;;;;;;;;5031968;28;20528;-62
2023/08/15 01:30:54;;;;;;;643.35;582.63;;;;;;;;;;5029362;28;20430;-62
2023/08/15 01:33:26;;;;;;;160.98;148.40;;;;;;;;;;5033128;28;20437;-62
2023/08/15 01:35:59;;;;;;;720.08;606.50;;;;;;;;;;5032628;28;20918;-62
2023/08/15 01:38:33;;;;;;;645.87;569.40;;;;;;;;;;5033404;28;20438;-62
2023/08/15 01:41:01;;;;;;;651.13;592.13;;;;;;;;;;5031313;28;20612;-62
2023/08/15 01:43:28;;;;;;;363.23;334.00;;;;;;;;;;5031350;28;20494;-62
2023/08/15 01:45:56;;;;;;;54.20;50.17;;;;;;;;;;5032128;28;21122;-62
2023/08/15 01:48:23;;;;;;;7.53;6.80;;;;;;;;;;5032409;28;20508;-63
2023/08/15 01:50:51;;;;;;;44.92;42.33;;;;;;;;;;5031885;28;20429;-62
2023/08/15 01:53:19;;;;;;;112.88;104.10;;;;;;;;;;5030524;28;20430;-62
2023/08/15 01:55:46;;;;;;;687.47;621.92;;;;;;;;;;5029365;28;21246;-62
2023/08/15 01:58:13;;;;;;;411.88;379.25;;;;;;;;;;5030905;28;21804;-62
2023/08/15 02:00:41;;;;;;;565.00;519.47;;;;;;;;;;5033783;28;20873;-62
2023/08/15 02:03:08;;;;;;;5.05;4.55;;;;;;;;;;5029762;28;20853;-62
2023/08/15 02:05:36;;;;;;;642.05;589.88;;;;;;;;;;5033059;28;20433;-62
2023/08/15 02:08:03;;;;;;;273.90;246.93;;;;;;;;;;5030258;28;20527;-62
2023/08/15 02:10:31;;;;;;;496.83;450.73;;;;;;;;;;5030936;28;20441;-62
2023/08/15 02:12:58;;;;;;;670.08;594.28;;;;;;;;;;5033083;28;20440;-62
2023/08/15 02:15:25;;;;;;;613.70;552.00;;;;;;;;;;5027820;28;20449;-62
2023/08/15 02:17:52;;;;;;;729.38;563.95;;;;;;;;;;5023834;28;20502;-62
2023/08/15 02:20:20;;;;;;;697.22;629.88;;;;;;;;;;5030998;28;20451;-62
2023/08/15 02:22:47;;;;;;;750.72;598.45;;;;;;;;;;5028972;28;20439;-62
2023/08/15 02:25:14;;;;;;;717.25;542.55;;;;;;;;;;5031322;28;20515;-62
2023/08/15 02:27:41;;;;;;;724.67;558.88;;;;;;;;;;5030862;28;20530;-62
2023/08/15 02:30:11;;;;;;;713.92;549.88;;;;;;;;;;5029795;28;20492;-62
2023/08/15 02:32:38;;;;;;;693.90;590.78;;;;;;;;;;5029110;28;20459;-62
2023/08/15 02:35:08;;;;;;;694.83;518.22;;;;;;;;;;5024278;28;20453;-61
2023/08/15 02:37:36;;;;;;;699.20;515.53;;;;;;;;;;5028790;28;21078;-62
2023/08/15 02:40:06;;;;;;;710.20;540.63;;;;;;;;;;5028199;28;20528;-61
2023/08/15 02:42:33;;;;;;;690.83;584.20;;;;;;;;;;5024846;28;21070;-62
2023/08/15 02:45:00;;;;;;;694.95;583.85;;;;;;;;;;5030108;28;20462;-62
2023/08/15 02:47:27;;;;;;;580.65;522.45;;;;;;;;;;5027741;28;20967;-62
2023/08/15 02:49:54;;;;;;;703.72;539.97;;;;;;;;;;5029196;28;20425;-62
2023/08/15 02:52:22;;;;;;;710.28;555.72;;;;;;;;;;5031030;28;20441;-62
2023/08/15 02:54:52;;;;;;;713.55;569.35;;;;;;;;;;5030030;28;20526;-61
2023/08/15 02:57:19;;;;;;;728.40;597.95;;;;;;;;;;5026417;28;20430;-61
2023/08/15 02:59:46;;;;;;;694.47;524.60;;;;;;;;;;5027008;28;20529;-62
2023/08/15 03:02:14;;;;;;;713.45;599.55;;;;;;;;;;5030067;28;20579;-61
2023/08/15 03:04:41;;;;;;;651.80;582.70;;;;;;;;;;5028395;28;20474;-61
2023/08/15 03:07:08;;;;;;;710.60;605.58;;;;;;;;;;5030804;28;20517;-61
2023/08/15 03:09:36;;;;;;;680.95;601.50;;;;;;;;;;5028735;28;20439;-61
2023/08/15 03:12:03;;;;;;;660.08;571.47;;;;;;;;;;5030384;28;20417;-61
2023/08/15 03:14:30;;;;;;;667.70;511.88;;;;;;;;;;5027723;28;20433;-61
2023/08/15 03:16:57;;;;;;;271.40;249.85;;;;;;;;;;5026086;28;20439;-61
2023/08/15 03:19:25;;;;;;;182.13;168.90;;;;;;;;;;5030470;28;20440;-62
2023/08/15 03:21:53;;;;;;;368.83;341.75;;;;;;;;;;5036356;28;20429;-65
2023/08/15 03:24:20;;;;;;;295.08;274.20;;;;;;;;;;5024297;28;21129;-65
2023/08/15 03:26:47;;;;;;;92.72;85.85;;;;;;;;;;5032521;28;20519;-65
2023/08/15 03:29:14;;;;;;;24.17;22.30;;;;;;;;;;5029403;28;20429;-65
2023/08/15 03:31:41;;;;;;;604.55;546.53;;;;;;;;;;5032758;28;20440;-65
2023/08/15 03:34:08;;;;;;;503.85;464.17;;;;;;;;;;5028641;28;20537;-65
2023/08/15 03:36:35;;;;;;;242.15;225.25;;;;;;;;;;5028710;28;20432;-66
2023/08/15 03:39:03;;;;;;;529.60;482.90;;;;;;;;;;5033281;28;20996;-67
2023/08/15 03:41:30;;;;;;;564.97;496.92;;;;;;;;;;5029738;28;20433;-66
2023/08/15 03:43:58;;;;;;;219.15;203.65;;;;;;;;;;5028847;28;21142;-66
2023/08/15 03:46:26;;;;;;;302.98;281.90;;;;;;;;;;5030950;28;20550;-66
2023/08/15 03:48:53;;;;;;;222.50;207.48;;;;;;;;;;5029073;28;20438;-67
2023/08/15 03:51:20;;;;;;;107.75;101.03;;;;;;;;;;5028552;28;20432;-66
2023/08/15 03:54:08;;;;;;;79.97;74.47;;;;;;;;;;5021944;28;20794;-66
2023/08/15 03:56:35;;;;;;;386.83;359.57;;;;;;;;;;5031025;28;20847;-66
2023/08/15 03:59:03;;;;;;;545.92;502.92;;;;;;;;;;5030219;28;20437;-66
2023/08/15 04:01:30;;;;;;;9.38;5.72;;;;;;;;;;5029160;28;22876;-66
2023/08/15 04:03:57;;;;;;;9.82;8.93;;;;;;;;;;5032499;28;20791;-66
2023/08/15 04:06:24;;;;;;;18.35;17.08;;;;;;;;;;5027260;28;20440;-66
2023/08/15 04:08:52;;;;;;;117.88;110.30;;;;;;;;;;5024790;28;20526;-66
2023/08/15 04:11:19;;;;;;;206.23;192.00;;;;;;;;;;5028943;28;20855;-66
2023/08/15 04:13:46;;;;;;;503.58;464.13;;;;;;;;;;5026809;28;20514;-67
2023/08/15 04:16:14;;;;;;;567.80;522.80;;;;;;;;;;5029697;28;20433;-66
2023/08/15 04:18:42;;;;;;;13.38;11.25;;;;;;;;;;5027391;28;20436;-73
2023/08/15 04:21:11;;;;;;;52.03;48.30;;;;;;;;;;5031101;28;20529;-76
2023/08/15 04:23:38;;;;;;;26.63;24.65;;;;;;;;;;5032647;28;20752;-76
2023/08/15 04:26:06;;;;;;;14.88;13.63;;;;;;;;;;5032091;28;20429;-75
2023/08/15 04:28:33;;;;;;;15.05;13.80;;;;;;;;;;5038336;28;20791;-75
2023/08/15 04:31:02;;;;;;;8.23;7.20;;;;;;;;;;5036280;28;20437;-77
2023/08/15 04:33:32;;;;;;;151.55;141.73;;;;;;;;;;5028547;28;20954;-74
2023/08/15 04:35:59;;;;;;;29.53;27.37;;;;;;;;;;5033979;28;20514;-76
2023/08/15 04:38:27;;;;;;;113.38;106.05;;;;;;;;;;5029178;28;20773;-75
2023/08/15 04:40:54;;;;;;;7.30;4.80;;;;;;;;;;5036371;28;20929;-74
2023/08/15 04:43:25;;;;;;;8.20;7.47;;;;;;;;;;5032383;28;20864;-75
2023/08/15 04:45:52;;;;;;;24.00;22.47;;;;;;;;;;5039904;28;20475;-75
2023/08/15 04:48:19;;;;;;;504.83;466.03;;;;;;;;;;5034154;28;20434;-76
2023/08/15 04:50:46;;;;;;;621.63;558.17;;;;;;;;;;5033597;28;20431;-73
2023/08/15 04:53:13;;;;;;;354.75;326.92;;;;;;;;;;5036256;28;20437;-73
2023/08/15 04:55:40;;;;;;;622.72;566.80;;;;;;;;;;5034359;28;20439;-75
2023/08/15 04:58:09;;;;;;;631.55;574.00;;;;;;;;;;5035652;28;20991;-74
2023/08/15 05:00:38;;;;;;;474.38;438.25;;;;;;;;;;5033990;28;20440;-76
2023/08/15 05:03:05;;;;;;;105.43;97.95;;;;;;;;;;5036912;28;20461;-77
2023/08/15 05:05:32;;;;;;;478.17;441.75;;;;;;;;;;5035165;28;21137;-77
2023/08/15 05:08:00;;;;;;;623.83;569.97;;;;;;;;;;5034754;28;20465;-78
2023/08/15 05:10:27;;;;;;;280.00;258.07;;;;;;;;;;5037684;28;20435;-79
2023/08/15 05:12:58;;;;;;;6.77;6.27;;;;;;;;;;5039898;28;20935;-78
2023/08/15 05:15:29;;;;;;;325.98;302.40;;;;;;;;;;5041403;28;21400;-77
2023/08/15 05:17:56;;;;;;;603.92;552.88;;;;;;;;;;5041643;28;20441;-79
2023/08/15 05:20:24;;;;;;;630.50;576.80;;;;;;;;;;5036560;28;20447;-77
2023/08/15 05:22:51;;;;;;;604.33;534.13;;;;;;;;;;5038780;28;20437;-79
2023/08/15 05:25:18;;;;;;;567.63;521.58;;;;;;;;;;5038148;28;20512;-77
2023/08/15 05:27:45;;;;;;;492.67;456.27;;;;;;;;;;5042120;28;20810;-77
2023/08/15 05:30:12;;;;;;;468.42;434.02;;;;;;;;;;5047947;28;20431;-77
2023/08/15 05:32:42;;;;;;;590.20;541.87;;;;;;;;;;5039790;28;20510;-76
2023/08/15 05:35:09;;;;;;;348.38;323.15;;;;;;;;;;5035632;28;20515;-73
2023/08/15 05:37:36;;;;;;;591.38;541.38;;;;;;;;;;5035986;28;20431;-74
2023/08/15 05:40:07;;;;;;;487.05;450.23;;;;;;;;;;5033348;28;20439;-78
2023/08/15 05:42:34;;;;;;;562.25;516.10;;;;;;;;;;5038509;28;20440;-77
2023/08/15 05:45:02;;;;;;;261.90;244.07;;;;;;;;;;5034407;28;20433;-76
2023/08/15 05:47:29;;;;;;;211.50;197.25;;;;;;;;;;5036144;28;20441;-77
2023/08/15 05:49:56;;;;;;;35.47;33.40;;;;;;;;;;5027057;28;20435;-75
2023/08/15 05:52:24;;;;;;;574.87;528.13;;;;;;;;;;5029669;28;20660;-76
2023/08/15 05:54:51;;;;;;;586.50;537.53;;;;;;;;;;5023877;28;20483;-80
2023/08/15 05:57:18;;;;;;;361.25;331.95;;;;;;;;;;5032615;28;20441;-78
2023/08/15 05:59:46;;;;;;;810.70;736.20;;;;;;;;;;5032823;28;20440;-78
2023/08/15 06:02:17;;;;;;;815.17;739.22;;;;;;;;;;5033250;28;20550;-78
2023/08/15 06:04:44;;;;;;;844.60;773.13;;;;;;;;;;5032585;28;20431;-79
2023/08/15 06:07:14;;;;;;;944.72;828.63;;;;;;;;;;5035883;28;21071;-77
2023/08/15 06:09:41;;;;;;;964.28;861.28;;;;;;;;;;5035472;28;20432;-81
2023/08/15 06:12:09;;;;;;;977.17;871.95;;;;;;;;;;5035870;28;20469;-77
2023/08/15 06:14:43;;;;;;;1016.83;848.93;;;;;;;;;;5033404;28;20426;-78
2023/08/15 06:17:28;;;;;;;1020.10;863.47;;;;;;;;;;5036889;28;20525;-77
2023/08/15 06:19:55;;;;;;;39.83;36.85;;;;;;;;;;5037603;28;20524;-77
2023/08/15 06:22:23;;;;;;;74.13;68.63;;;;;;;;;;5038102;28;20588;-78
2023/08/15 06:24:50;;;;;;;325.02;296.02;;;;;;;;;;5039792;28;20978;-79
2023/08/15 06:27:17;;;;;;;34.40;31.57;;;;;;;;;;5037582;28;20424;-79
2023/08/15 06:29:45;;;;;;;1009.00;898.20;;;;;;;;;;5034956;28;20540;-79
2023/08/15 06:32:25;;;;;;;510.05;466.42;;;;;;;;;;5038368;28;20868;-79
2023/08/15 06:34:56;;;;;;;1013.65;903.92;;;;;;;;;;5035693;28;20822;-80
2023/08/15 06:37:23;;;;;;;1022.70;885.20;;;;;;;;;;5037209;28;20461;-79
2023/08/15 06:39:50;;;;;;;1023.95;912.35;;;;;;;;;;5031885;28;20430;-78
2023/08/15 06:42:18;;;;;;;1044.70;904.88;;;;;;;;;;5034827;28;21551;-78
2023/08/15 06:44:45;;;;;;;1054.63;923.13;;;;;;;;;;5033325;28;20854;-78
2023/08/15 06:47:12;;;;;;;1065.75;963.22;;;;;;;;;;5036286;28;20436;-78
2023/08/15 06:49:39;;;;;;;1095.95;987.78;;;;;;;;;;5037474;28;20470;-79
2023/08/15 06:52:09;;;;;;;1070.90;981.10;;;;;;;;;;5031623;28;20445;-76
2023/08/15 06:54:36;;;;;;;972.17;874.65;;;;;;;;;;5037610;28;20440;-76
2023/08/15 06:57:07;;;;;;;1085.53;986.65;;;;;;;;;;5036650;28;20511;-76
2023/08/15 06:59:35;;;;;;;750.17;687.05;;;;;;;;;;5033448;28;20505;-76
2023/08/15 07:02:03;;;;;;;417.05;382.05;;;;;;;;;;5034072;28;20432;-76
2023/08/15 07:04:30;;;;;;;757.75;691.58;;;;;;;;;;5035624;28;20441;-76
2023/08/15 07:06:58;;;;;;;995.50;907.17;;;;;;;;;;5036708;28;20522;-77
2023/08/15 07:09:28;;;;;;;636.78;581.30;;;;;;;;;;5037708;28;20446;-76
2023/08/15 07:11:56;;;;;;;25.70;23.50;;;;;;;;;;5035791;28;20521;-76
2023/08/15 07:14:23;;;;;;;292.10;266.58;;;;;;;;;;5033262;28;20513;-76
2023/08/15 07:16:51;;;;;;;702.00;641.20;;;;;;;;;;5037224;28;20436;-75
2023/08/15 07:19:18;;;;;;;185.70;170.85;;;;;;;;;;5033785;28;20498;-74
2023/08/15 07:21:45;;;;;;;777.97;708.17;;;;;;;;;;5037222;28;20429;-75
2023/08/15 07:24:12;;;;;;;266.98;244.15;;;;;;;;;;5031181;28;20472;-74
2023/08/15 07:26:39;;;;;;;987.83;906.83;;;;;;;;;;5032276;28;20437;-75
2023/08/15 07:29:07;;;;;;;15.37;14.30;;;;;;;;;;5031401;28;20447;-76
2023/08/15 07:31:34;;;;;;;372.85;340.40;;;;;;;;;;5033922;28;20440;-75
2023/08/15 07:34:01;;;;;;;56.58;52.40;;;;;;;;;;5035713;28;20438;-76
2023/08/15 07:36:28;;;;;;;180.63;165.43;;;;;;;;;;5037551;28;20565;-75
2023/08/15 07:38:56;;;;;;;254.75;232.70;;;;;;;;;;5034215;28;20649;-76
2023/08/15 07:41:23;;;;;;;24.13;22.48;;;;;;;;;;5035207;28;20431;-76
2023/08/15 07:43:50;;;;;;;53.60;49.57;;;;;;;;;;5034774;28;20425;-76
2023/08/15 07:46:17;;;;;;;7.13;6.60;;;;;;;;;;5033545;28;20437;-75
2023/08/15 07:48:45;;;;;;;189.88;174.07;;;;;;;;;;5036021;28;21239;-75
2023/08/15 07:51:13;;;;;;;61.60;57.03;;;;;;;;;;5036525;28;20475;-76
2023/08/15 07:53:40;;;;;;;148.82;135.60;;;;;;;;;;5035524;28;20973;-78
2023/08/15 07:56:07;;;;;;;680.92;620.92;;;;;;;;;;5038642;28;20429;-76
2023/08/15 07:58:35;;;;;;;96.20;87.45;;;;;;;;;;5034914;28;20442;-75
2023/08/15 08:01:04;;;;;;;818.70;747.60;;;;;;;;;;5037650;28;20430;-77
2023/08/15 08:03:32;;;;;;;445.92;406.75;;;;;;;;;;5032223;28;20436;-77
2023/08/15 08:05:59;;;;;;;416.65;379.92;;;;;;;;;;5034101;28;20514;-76
2023/08/15 08:08:29;;;;;;;1074.72;982.95;;;;;;;;;;5038046;28;20433;-77
2023/08/15 08:10:56;;;;;;;268.75;245.93;;;;;;;;;;5034996;28;20425;-77
2023/08/15 08:13:24;;;;;;;432.10;393.98;;;;;;;;;;5039154;28;20461;-77
2023/08/15 08:15:51;;;;;;;911.88;831.58;;;;;;;;;;5037505;28;20429;-77
2023/08/15 08:18:18;;;;;;;586.30;536.55;;;;;;;;;;5037328;28;20460;-77
2023/08/15 08:20:45;;;;;;;531.17;484.15;;;;;;;;;;5036245;28;20430;-77
2023/08/15 08:23:13;;;;;;;445.35;405.95;;;;;;;;;;5037003;28;20540;-78
2023/08/15 08:25:40;;;;;;;320.63;291.65;;;;;;;;;;5035366;28;20540;-77
2023/08/15 08:28:07;;;;;;;76.55;70.53;;;;;;;;;;5041045;28;20440;-77
2023/08/15 08:30:35;;;;;;;231.13;210.68;;;;;;;;;;5040534;28;20428;-78
2023/08/15 08:33:02;;;;;;;443.70;403.70;;;;;;;;;;5037193;28;20577;-78
2023/08/15 08:35:29;;;;;;;570.38;520.30;;;;;;;;;;5035669;28;20439;-77
2023/08/15 08:37:56;;;;;;;237.07;217.73;;;;;;;;;;5037761;28;20429;-78
2023/08/15 08:40:24;;;;;;;764.97;697.90;;;;;;;;;;5037631;28;20543;-78
2023/08/15 08:42:51;;;;;;;1221.18;999.90;;;;;;;;;;5036775;28;20471;-79
2023/08/15 08:45:18;;;;;;;1116.55;999.90;;;;;;;;;;5039416;28;20532;-78
2023/08/15 08:47:47;;;;;;;1164.10;999.90;;;;;;;;;;5035082;28;20530;-78
2023/08/15 08:50:15;;;;;;;245.70;224.98;;;;;;;;;;5038161;28;20483;-79
2023/08/15 08:52:48;;;;;;;11.70;10.82;;;;;;;;;;5031863;28;20453;-79
2023/08/15 08:55:16;;;;;;;832.58;761.78;;;;;;;;;;5033143;28;20508;-78
2023/08/15 08:57:45;;;;;;;717.53;655.42;;;;;;;;;;5038044;28;20440;-77
2023/08/15 09:00:13;;;;;;;283.38;259.45;;;;;;;;;;5037218;28;20429;-79
2023/08/15 09:02:40;;;;;;;575.10;523.88;;;;;;;;;;5033646;28;20946;-78
2023/08/15 09:05:12;;;;;;;819.03;749.33;;;;;;;;;;5035962;28;20483;-78
2023/08/15 09:07:39;;;;;;;371.95;338.95;;;;;;;;;;5036365;28;20488;-77
2023/08/15 09:10:06;;;;;;;274.55;251.55;;;;;;;;;;5036213;28;20448;-79
2023/08/15 09:12:34;;;;;;;92.32;86.03;;;;;;;;;;5036337;28;20437;-79
2023/08/15 09:15:02;;;;;;;492.20;448.83;;;;;;;;;;5037125;28;20522;-78
2023/08/15 09:17:32;;;;;;;5.70;5.28;;;;;;;;;;5034024;28;20791;-78
2023/08/15 09:20:13;;;;;;;2.40;1.50;;;;;;;;;;5035685;28;20433;-78
2023/08/15 09:22:44;;;;;;;1.77;1.40;;;;;;;;;;5040376;28;20429;-77
2023/08/15 09:25:11;;;;;;;2.47;1.42;;;;;;;;;;5043374;28;20435;-79
2023/08/15 09:27:41;;;;;;;3.03;1.33;;;;;;;;;;5037846;28;20465;-78
2023/08/15 09:30:12;;;;;;;1.73;1.63;;;;;;;;;;5043431;28;20433;-77
2023/08/15 09:32:40;;;;;;;2.75;1.42;;;;;;;;;;5035111;28;20446;-78
2023/08/15 09:35:12;;;;;;;2.00;1.60;;;;;;;;;;5031575;28;20442;-77
2023/08/15 09:37:44;;;;;;;2.28;1.52;;;;;;;;;;5035521;28;20440;-78
2023/08/15 09:40:12;;;;;;;1.67;1.45;;;;;;;;;;5040425;28;20444;-78
2023/08/15 09:42:43;;;;;;;2.00;1.67;;;;;;;;;;5040661;28;20466;-76
2023/08/15 09:45:12;;;;;;;1.70;1.60;;;;;;;;;;5041577;28;20429;-77
2023/08/15 09:47:39;;;;;;;2.03;1.65;;;;;;;;;;5038477;28;20479;-77
2023/08/15 09:50:07;;;;;;;2.87;1.73;;;;;;;;;;5036803;28;20430;-78
2023/08/15 09:52:36;;;;;;;3.95;1.85;;;;;;;;;;5036922;28;20791;-77
2023/08/15 09:55:03;;;;;;;2.60;1.83;;;;;;;;;;5041367;28;20525;-77
2023/08/15 09:57:33;;;;;;;6.55;5.95;;;;;;;;;;5040202;28;21180;-77
2023/08/15 10:00:00;;;;;;;83.63;76.85;;;;;;;;;;5024758;28;21132;-76
2023/08/15 10:02:29;;;;;;;2.20;2.00;;;;;;;;;;5040723;28;21024;-78
2023/08/15 10:05:06;;;;;;;2.40;2.20;;;;;;;;;;5042077;28;20429;-77
2023/08/15 10:07:33;;;;;;;3.00;2.70;;;;;;;;;;5039388;28;20432;-75
2023/08/15 10:10:05;;;;;;;288.75;265.60;;;;;;;;;;5034901;28;20433;-75
2023/08/15 10:12:32;;;;;;;422.95;385.30;;;;;;;;;;5039934;28;20465;-76
2023/08/15 10:15:00;;;;;;;2.42;1.60;;;;;;;;;;5039978;28;20433;-76
2023/08/15 10:17:29;;;;;;;3.60;3.30;;;;;;;;;;5040948;28;20922;-75
2023/08/15 10:20:05;;;;;;;1.77;1.58;;;;;;;;;;5038720;28;20513;-75
2023/08/15 10:22:34;;;;;;;1.35;1.33;;;;;;;;;;5040896;28;20439;-77
2023/08/15 10:25:18;;;;;;;69.35;64.35;;;;;;;;;;5044115;28;20514;-76
2023/08/15 10:27:46;;;;;;;56.92;53.08;;;;;;;;;;5042308;28;20425;-77
2023/08/15 10:30:28;;;;;;;6.18;5.88;;;;;;;;;;5051953;28;20552;-77
2023/08/15 10:32:59;;;;;;;30.33;28.25;;;;;;;;;;5048656;28;20433;-78
2023/08/15 10:35:26;;;;;;;4.05;3.63;;;;;;;;;;5052056;28;20537;-76
2023/08/15 10:37:58;;;;;;;34.78;32.38;;;;;;;;;;5044000;28;20453;-77
2023/08/15 10:40:38;;;;;;;154.05;141.52;;;;;;;;;;5044931;28;20424;-76
2023/08/15 10:43:07;;;;;;;453.13;413.80;;;;;;;;;;5047469;28;20429;-76
2023/08/15 10:45:38;;;;;;;694.08;635.40;;;;;;;;;;5034250;28;20455;-77
2023/08/15 10:48:05;;;;;;;1.50;1.40;;;;;;;;;;5040163;28;20437;-77
2023/08/15 10:50:33;;;;;;;27.45;25.80;;;;;;;;;;5037995;28;20440;-78
2023/08/15 10:53:04;;;;;;;423.87;387.97;;;;;;;;;;5039130;28;20595;-78
2023/08/15 10:55:36;;;;;;;71.37;66.23;;;;;;;;;;5033183;28;20919;-73
2023/08/15 10:58:10;;;;;;;115.50;106.77;;;;;;;;;;5027693;28;20465;-68
2023/08/15 11:00:40;;;;;;;53.50;49.53;;;;;;;;;;5027584;28;20484;-67
2023/08/15 11:03:07;;;;;;;171.80;158.55;;;;;;;;;;5036141;28;20431;-67
2023/08/15 11:05:35;;;;;;;456.38;417.17;;;;;;;;;;5025462;28;20431;-66
2023/08/15 11:08:15;;;;;;;3.17;2.08;;;;;;;;;;5026462;28;20513;-66
2023/08/15 11:10:43;;;;;;;3.47;2.20;;;;;;;;;;5029324;28;20434;-67
2023/08/15 11:13:10;;;;;;;5.97;5.25;;;;;;;;;;5017867;28;20874;-65
2023/08/15 11:15:37;;;;;;;10.77;6.97;;;;;;;;;;5027314;28;20433;-66
2023/08/15 11:18:05;;;;;;;6.68;2.40;;;;;;;;;;5028957;28;20434;-64
2023/08/15 11:20:33;;;;;;;2.85;2.50;;;;;;;;;;5027776;28;20433;-64
2023/08/15 11:23:03;;;;;;;6.50;2.90;;;;;;;;;;5028343;28;20532;-64
2023/08/15 11:25:30;;;;;;;3.63;2.80;;;;;;;;;;5029643;28;20536;-64
2023/08/15 11:27:57;;;;;;;2.57;2.37;;;;;;;;;;5025198;28;20520;-63
2023/08/15 11:30:27;;;;;;;4.10;2.53;;;;;;;;;;5034830;28;20442;-64
2023/08/15 11:32:54;;;;;;;3.67;2.42;;;;;;;;;;5027423;28;20433;-64
2023/08/15 11:35:22;;;;;;;6.13;5.63;;;;;;;;;;5025003;28;20437;-64
2023/08/15 11:37:49;;;;;;;312.60;285.40;;;;;;;;;;5022987;28;20466;-64
2023/08/15 11:40:16;;;;;;;4.78;2.45;;;;;;;;;;5029810;28;20432;-64
2023/08/15 11:42:43;;;;;;;3.55;2.90;;;;;;;;;;5031337;28;20437;-63
2023/08/15 11:45:12;;;;;;;2.40;2.20;;;;;;;;;;5034103;28;20490;-64
2023/08/15 11:47:54;;;;;;;3.88;2.45;;;;;;;;;;5030184;28;20505;-64
2023/08/15 11:50:21;;;;;;;3.67;2.70;;;;;;;;;;5028828;28;20442;-64
2023/08/15 11:53:13;;;;;;;4.55;2.13;;;;;;;;;;5029808;28;21047;-64
2023/08/15 11:55:40;;;;;;;3.15;2.85;;;;;;;;;;5030615;28;20445;-63
2023/08/15 11:58:27;;;;;;;3.28;2.40;;;;;;;;;;5030546;28;20513;-64
2023/08/15 12:01:08;;;;;;;4.00;2.30;;;;;;;;;;5034395;28;20828;-63
2023/08/15 12:03:36;;;;;;;9.48;2.60;;;;;;;;;;5025104;28;21085;-64
2023/08/15 12:06:06;;;;;;;4.30;2.50;;;;;;;;;;5025672;28;20431;-64
2023/08/15 12:08:34;;;;;;;3.10;2.50;;;;;;;;;;5020575;28;20472;-64
2023/08/15 12:11:05;;;;;;;2.72;2.45;;;;;;;;;;5025326;28;20437;-64
2023/08/15 12:13:33;;;;;;;2.38;2.10;;;;;;;;;;5018091;28;20507;-64
2023/08/15 12:16:01;;;;;;;2.65;2.40;;;;;;;;;;5022008;28;20456;-64
2023/08/15 12:18:29;;;;;;;3.35;2.38;;;;;;;;;;5025823;28;20437;-64
2023/08/15 12:20:56;;;;;;;3.00;2.33;;;;;;;;;;5021117;28;21279;-63
2023/08/15 12:23:23;;;;;;;2.60;2.40;;;;;;;;;;5020830;28;23045;-63
2023/08/15 12:25:55;;;;;;;2.87;2.57;;;;;;;;;;5023455;28;20438;-63
2023/08/15 12:28:22;;;;;;;2.75;2.20;;;;;;;;;;5025163;28;20440;-63
2023/08/15 12:30:50;;;;;;;6.68;2.33;;;;;;;;;;5034434;28;20437;-63
2023/08/15 12:33:17;;;;;;;2.63;2.30;;;;;;;;;;5028545;28;20443;-63
2023/08/15 12:36:04;;;;;;;3.17;2.15;;;;;;;;;;5023951;28;20421;-63
2023/08/15 12:38:32;;;;;;;2.70;2.50;;;;;;;;;;5025262;28;20552;-64
2023/08/15 12:40:59;;;;;;;3.60;2.20;;;;;;;;;;5020027;28;20444;-63
2023/08/15 12:43:26;;;;;;;3.53;2.33;;;;;;;;;;5023807;28;20434;-63
2023/08/15 12:45:54;;;;;;;2.75;2.38;;;;;;;;;;5019815;28;20524;-63
2023/08/15 12:48:22;;;;;;;5.47;2.00;;;;;;;;;;5025001;28;20443;-63
2023/08/15 12:50:49;;;;;;;3.47;2.35;;;;;;;;;;5027170;28;20930;-63
2023/08/15 12:53:16;;;;;;;2.05;1.95;;;;;;;;;;5023519;28;20446;-63
2023/08/15 12:55:45;;;;;;;2.87;2.10;;;;;;;;;;5019702;28;21205;-63
2023/08/15 12:58:12;;;;;;;2.45;1.80;;;;;;;;;;5021346;28;20547;-63
2023/08/15 13:00:41;;;;;;;5.18;2.58;;;;;;;;;;5024236;28;21065;-63
2023/08/15 13:03:09;;;;;;;3.55;2.28;;;;;;;;;;5021453;28;20433;-63
2023/08/15 13:05:36;;;;;;;2.45;2.20;;;;;;;;;;5015433;28;20439;-63
2023/08/15 13:08:04;;;;;;;3.95;2.42;;;;;;;;;;5022090;28;20452;-63
2023/08/15 13:10:32;;;;;;;2.58;2.30;;;;;;;;;;5020568;28;21102;-62
2023/08/15 13:12:59;;;;;;;4.53;2.40;;;;;;;;;;5021206;28;20523;-62
2023/08/15 13:15:26;;;;;;;6.30;5.90;;;;;;;;;;5021784;28;20447;-63
2023/08/15 13:17:54;;;;;;;5.78;2.67;;;;;;;;;;5021754;28;20586;-63
2023/08/15 13:20:22;;;;;;;6.13;5.32;;;;;;;;;;5025947;28;20430;-63
2023/08/15 13:22:49;;;;;;;110.07;100.25;;;;;;;;;;5026485;28;20510;-64
2023/08/15 13:25:16;;;;;;;65.63;60.38;;;;;;;;;;5029262;28;20887;-63
2023/08/15 13:27:43;;;;;;;31.52;29.23;;;;;;;;;;5028555;28;20496;-63
2023/08/15 13:30:10;;;;;;;6.22;2.90;;;;;;;;;;5029563;28;20522;-63
2023/08/15 13:32:38;;;;;;;6.57;5.53;;;;;;;;;;5026686;28;21011;-64
2023/08/15 13:35:05;;;;;;;6.05;3.00;;;;;;;;;;5027602;28;20929;-63
2023/08/15 13:37:32;;;;;;;5.53;2.92;;;;;;;;;;5032735;28;20438;-63
2023/08/15 13:39:59;;;;;;;6.28;2.90;;;;;;;;;;5028497;28;20429;-63
2023/08/15 13:42:27;;;;;;;5.95;2.50;;;;;;;;;;5028922;28;20472;-63
2023/08/15 13:45:06;;;;;;;3.58;2.22;;;;;;;;;;5028398;28;20451;-63
2023/08/15 13:47:37;;;;;;;5.65;2.38;;;;;;;;;;5028887;28;20560;-63
2023/08/15 13:50:05;;;;;;;2.80;2.38;;;;;;;;;;5023836;28;20441;-63
2023/08/15 13:52:33;;;;;;;3.38;2.70;;;;;;;;;;5026232;28;20521;-63
2023/08/15 13:55:00;;;;;;;2.50;2.13;;;;;;;;;;5030207;28;20461;-64
2023/08/15 13:57:27;;;;;;;4.03;2.80;;;;;;;;;;5023952;28;20549;-63
2023/08/15 13:59:56;;;;;;;3.63;2.40;;;;;;;;;;5028688;28;20439;-63
2023/08/15 14:02:23;;;;;;;2.47;2.25;;;;;;;;;;5026394;28;20550;-63
2023/08/15 14:04:51;;;;;;;14.07;12.77;;;;;;;;;;5026568;28;21060;-63
2023/08/15 14:07:18;;;;;;;20.75;19.15;;;;;;;;;;5024612;28;20432;-63
2023/08/15 14:09:46;;;;;;;2.80;2.60;;;;;;;;;;5026510;28;20486;-64
2023/08/15 14:12:14;;;;;;;4.90;2.53;;;;;;;;;;5027269;28;20511;-63
2023/08/15 14:14:41;;;;;;;12.33;11.33;;;;;;;;;;5024851;28;23155;-63
2023/08/15 14:17:09;;;;;;;4.20;2.83;;;;;;;;;;5022823;28;21143;-64
2023/08/15 14:19:36;;;;;;;19.83;17.17;;;;;;;;;;5029137;28;21187;-63